createdAt,value
2023-03-30T00:01:07.320Z,100520.44
2023-03-30T00:03:33.789Z,100533.06
2023-03-30T00:06:03.864Z,100527.84
2023-03-30T00:08:30.183Z,100522.00
2023-03-30T00:11:15.825Z,100526.47
2023-03-30T00:13:43.420Z,100522.50
2023-03-30T00:16:11.905Z,100520.44
2023-03-30T00:18:38.573Z,100498.91
2023-03-30T00:21:06.222Z,100521.53
2023-03-30T00:23:33.377Z,100506.00
2023-03-30T00:26:00.252Z,100496.16
2023-03-30T00:28:26.739Z,100508.16
2023-03-30T00:30:53.674Z,100505.19
2023-03-30T00:33:27.492Z,100511.94
2023-03-30T00:36:00.291Z,100501.88
2023-03-30T00:38:26.637Z,100485.97
2023-03-30T00:40:58.839Z,100485.03
2023-03-30T00:43:25.896Z,100472.44
2023-03-30T00:45:52.570Z,100472.03
2023-03-30T00:48:24.484Z,100481.84
2023-03-30T00:50:55.735Z,100477.94
2023-03-30T00:53:28.538Z,100470.06
2023-03-30T00:55:57.238Z,100477.03
2023-03-30T00:58:25.208Z,100453.13
2023-03-30T01:00:51.933Z,100460.78
2023-03-30T01:03:28.428Z,100475.00
2023-03-30T01:05:56.997Z,100472.59
2023-03-30T01:08:25.713Z,100469.84
2023-03-30T01:10:52.103Z,100483.34
2023-03-30T01:13:19.613Z,100475.34
2023-03-30T01:16:09.143Z,100468.34
2023-03-30T01:18:38.202Z,100468.13
2023-03-30T01:21:41.859Z,100467.41
2023-03-30T01:24:33.312Z,100463.75
2023-03-30T01:27:11.362Z,100456.00
2023-03-30T01:30:03.790Z,100456.25
2023-03-30T01:32:49.145Z,100450.41
2023-03-30T01:35:44.104Z,100429.25
2023-03-30T01:38:31.354Z,100431.78
2023-03-30T01:41:28.122Z,100441.63
2023-03-30T01:44:11.946Z,100445.41
2023-03-30T01:46:46.169Z,100447.59
2023-03-30T01:49:40.541Z,100441.06
2023-03-30T01:52:18.274Z,100430.00
2023-03-30T01:55:13.585Z,100437.66
2023-03-30T01:57:57.409Z,100439.72
2023-03-30T02:00:25.258Z,100447.59
2023-03-30T02:02:57.041Z,100446.22
2023-03-30T02:05:26.824Z,100437.88
2023-03-30T02:07:57.617Z,100436.97
2023-03-30T02:10:29.021Z,100445.44
2023-03-30T02:12:56.996Z,100437.19
2023-03-30T02:15:26.261Z,100433.66
2023-03-30T02:17:52.754Z,100431.25
2023-03-30T02:20:19.284Z,100431.47
2023-03-30T02:22:46.079Z,100422.09
2023-03-30T02:25:13.350Z,100407.94
2023-03-30T02:27:40.907Z,100406.59
2023-03-30T02:30:08.605Z,100391.16
2023-03-30T02:32:44.326Z,100384.06
2023-03-30T02:35:33.087Z,100393.78
2023-03-30T02:38:20.048Z,100400.28
2023-03-30T02:41:16.241Z,100403.13
2023-03-30T02:43:59.236Z,100411.13
2023-03-30T02:47:01.675Z,100412.28
2023-03-30T02:49:42.876Z,100416.50
2023-03-30T02:52:42.552Z,100390.56
2023-03-30T02:55:29.371Z,100400.34
2023-03-30T02:58:05.213Z,100399.41
2023-03-30T03:00:43.698Z,100413.88
2023-03-30T03:03:21.877Z,100419.22
2023-03-30T03:05:48.493Z,100425.06
2023-03-30T03:08:17.674Z,100420.69
2023-03-30T03:10:44.076Z,100428.13
2023-03-30T03:13:10.632Z,100424.06
2023-03-30T03:15:37.184Z,100413.78
2023-03-30T03:18:03.839Z,100419.66
2023-03-30T03:20:30.241Z,100427.91
2023-03-30T03:22:56.584Z,100419.34
2023-03-30T03:25:22.958Z,100412.03
2023-03-30T03:27:49.256Z,100422.78
2023-03-30T03:30:15.668Z,100427.94
2023-03-30T03:32:42.040Z,100402.22
2023-03-30T03:35:08.732Z,100418.00
2023-03-30T03:37:36.575Z,100406.59
2023-03-30T03:40:03.081Z,100390.69
2023-03-30T03:42:29.407Z,100383.38
2023-03-30T03:44:55.736Z,100368.88
2023-03-30T03:47:22.146Z,100372.75
2023-03-30T03:49:48.703Z,100370.69
2023-03-30T03:52:15.073Z,100367.38
2023-03-30T03:54:41.418Z,100360.97
2023-03-30T03:57:07.875Z,100356.50
2023-03-30T03:59:34.423Z,100357.44
2023-03-30T04:02:00.899Z,100371.28
2023-03-30T04:04:27.405Z,100367.72
2023-03-30T04:06:53.766Z,100378.13
2023-03-30T04:09:20.175Z,100361.66
2023-03-30T04:11:46.507Z,100371.03
2023-03-30T04:14:12.836Z,100353.31
2023-03-30T04:16:39.179Z,100354.81
2023-03-30T04:19:05.509Z,100373.88
2023-03-30T04:21:31.872Z,100367.59
2023-03-30T04:23:58.216Z,100368.88
2023-03-30T04:26:24.614Z,100371.50
2023-03-30T04:28:50.947Z,100350.47
2023-03-30T04:31:17.282Z,100353.19
2023-03-30T04:33:46.221Z,100344.75
2023-03-30T04:36:13.287Z,100354.66
2023-03-30T04:38:39.632Z,100346.91
2023-03-30T04:41:06.321Z,100352.59
2023-03-30T04:43:32.819Z,100339.81
2023-03-30T04:45:59.245Z,100333.78
2023-03-30T04:48:25.657Z,100349.41
2023-03-30T04:50:52.096Z,100355.72
2023-03-30T04:53:18.845Z,100357.88
2023-03-30T04:55:49.896Z,100350.69
2023-03-30T04:58:17.134Z,100351.03
2023-03-30T05:00:43.509Z,100358.22
2023-03-30T05:03:10.122Z,100361.41
2023-03-30T05:05:36.731Z,100349.88
2023-03-30T05:08:03.159Z,100348.81
2023-03-30T05:10:29.539Z,100344.63
2023-03-30T05:12:56.519Z,100348.38
2023-03-30T05:15:23.179Z,100336.72
2023-03-30T05:17:49.577Z,100332.25
2023-03-30T05:20:16.110Z,100342.28
2023-03-30T05:22:42.470Z,100340.16
2023-03-30T05:25:09.263Z,100347.81
2023-03-30T05:27:35.606Z,100349.88
2023-03-30T05:30:01.928Z,100334.47
2023-03-30T05:32:28.351Z,100340.53
2023-03-30T05:34:54.835Z,100321.44
2023-03-30T05:37:21.328Z,100347.50
2023-03-30T05:39:51.706Z,100318.94
2023-03-30T05:42:26.802Z,100346.94
2023-03-30T05:44:53.507Z,100340.66
2023-03-30T05:47:19.914Z,100345.91
2023-03-30T05:49:46.298Z,100333.13
2023-03-30T05:52:12.667Z,100338.84
2023-03-30T05:54:39.037Z,100339.41
2023-03-30T05:57:05.465Z,100334.28
2023-03-30T05:59:31.841Z,100338.47
2023-03-30T06:01:58.372Z,100343.16
2023-03-30T06:04:24.851Z,100347.06
2023-03-30T06:06:51.204Z,100347.84
2023-03-30T06:09:17.559Z,100354.38
2023-03-30T06:11:44.006Z,100355.50
2023-03-30T06:14:10.430Z,100343.84
2023-03-30T06:16:37.537Z,100346.38
2023-03-30T06:19:03.943Z,100354.69
2023-03-30T06:21:30.296Z,100341.53
2023-03-30T06:23:56.616Z,100346.78
2023-03-30T06:26:23.023Z,100364.25
2023-03-30T06:28:49.369Z,100360.78
2023-03-30T06:31:15.759Z,100365.31
2023-03-30T06:33:42.212Z,100363.34
2023-03-30T06:36:13.890Z,100378.09
2023-03-30T06:38:40.832Z,100378.09
2023-03-30T06:41:07.607Z,100376.69
2023-03-30T06:43:34.551Z,100371.47
2023-03-30T06:46:01.045Z,100390.69
2023-03-30T06:48:27.695Z,100379.47
2023-03-30T06:50:54.617Z,100386.81
2023-03-30T06:53:23.221Z,100378.50
2023-03-30T06:55:57.906Z,100385.13
2023-03-30T06:58:25.509Z,100386.91
2023-03-30T07:00:52.230Z,100381.28
2023-03-30T07:03:19.367Z,100366.16
2023-03-30T07:05:49.833Z,100386.25
2023-03-30T07:08:16.704Z,100381.19
2023-03-30T07:10:43.135Z,100407.06
2023-03-30T07:13:10.168Z,100406.56
2023-03-30T07:15:36.584Z,100409.69
2023-03-30T07:18:02.976Z,100420.84
2023-03-30T07:20:29.393Z,100423.63
2023-03-30T07:22:55.809Z,100409.25
2023-03-30T07:25:22.155Z,100405.00
2023-03-30T07:27:48.493Z,100410.34
2023-03-30T07:30:21.789Z,100417.84
2023-03-30T07:32:50.339Z,100424.19
2023-03-30T07:35:17.046Z,100420.91
2023-03-30T07:37:43.400Z,100419.91
2023-03-30T07:40:10.209Z,100416.00
2023-03-30T07:42:37.072Z,100435.53
2023-03-30T07:45:04.961Z,100426.75
2023-03-30T07:47:31.398Z,100439.00
2023-03-30T07:49:57.801Z,100445.50
2023-03-30T07:52:24.187Z,100427.28
2023-03-30T07:54:50.520Z,100442.38
2023-03-30T07:57:17.083Z,100451.31
2023-03-30T07:59:43.500Z,100455.34
2023-03-30T08:02:12.478Z,100457.66
2023-03-30T08:04:38.946Z,100448.16
2023-03-30T08:07:05.456Z,100465.31
2023-03-30T08:09:31.800Z,100459.25
2023-03-30T08:11:58.192Z,100457.91
2023-03-30T08:14:25.286Z,100466.22
2023-03-30T08:16:51.601Z,100458.91
2023-03-30T08:19:17.897Z,100471.34
2023-03-30T08:21:44.252Z,100464.81
2023-03-30T08:24:10.613Z,100446.94
2023-03-30T08:26:36.923Z,100462.53
2023-03-30T08:29:03.249Z,100465.53
2023-03-30T08:31:29.679Z,100471.94
2023-03-30T08:33:56.098Z,100477.59
2023-03-30T08:36:22.456Z,100470.16
2023-03-30T08:38:48.791Z,100462.19
2023-03-30T08:41:37.891Z,100481.75
2023-03-30T08:44:19.791Z,100469.69
2023-03-30T08:46:46.394Z,100479.53
2023-03-30T08:49:16.852Z,100484.31
2023-03-30T08:51:44.300Z,100480.00
2023-03-30T08:54:16.060Z,100487.75
2023-03-30T08:56:55.814Z,100484.31
2023-03-30T08:59:38.330Z,100484.84
2023-03-30T09:02:13.983Z,100487.34
2023-03-30T09:04:56.126Z,100496.41
2023-03-30T09:07:27.018Z,100491.13
2023-03-30T09:09:56.627Z,100492.41
2023-03-30T09:12:37.121Z,100500.97
2023-03-30T09:15:06.508Z,100505.63
2023-03-30T09:17:50.305Z,100500.50
2023-03-30T09:20:25.385Z,100508.50
2023-03-30T09:22:54.133Z,100503.25
2023-03-30T09:25:35.892Z,100499.38
2023-03-30T09:28:18.941Z,100518.97
2023-03-30T09:30:51.917Z,100511.03
2023-03-30T09:33:18.162Z,100535.78
2023-03-30T09:35:59.070Z,100531.44
2023-03-30T09:38:25.373Z,100536.16
2023-03-30T09:41:48.192Z,100534.19
2023-03-30T09:44:32.332Z,100533.59
2023-03-30T09:46:59.440Z,100518.53
2023-03-30T09:49:38.214Z,100526.88
2023-03-30T09:52:08.002Z,100520.38
2023-03-30T09:54:39.738Z,100517.03
2023-03-30T09:57:21.757Z,100529.97
2023-03-30T09:59:48.216Z,100515.25
2023-03-30T10:02:14.554Z,100530.06
2023-03-30T10:04:56.515Z,100536.28
2023-03-30T10:07:25.962Z,100535.84
2023-03-30T10:09:52.925Z,100533.81
2023-03-30T10:12:19.778Z,100542.47
2023-03-30T10:14:46.335Z,100544.31
2023-03-30T10:17:21.519Z,100541.97
2023-03-30T10:19:51.737Z,100551.53
2023-03-30T10:22:22.029Z,100530.50
2023-03-30T10:24:53.517Z,100527.72
2023-03-30T10:27:19.993Z,100535.13
2023-03-30T10:29:47.658Z,100547.06
2023-03-30T10:32:24.570Z,100549.66
2023-03-30T10:34:54.507Z,100546.94
2023-03-30T10:37:47.592Z,100555.72
2023-03-30T10:40:20.794Z,100539.47
2023-03-30T10:42:52.784Z,100555.28
2023-03-30T10:45:26.507Z,100558.34
2023-03-30T10:48:23.426Z,100552.97
2023-03-30T10:51:11.557Z,100576.31
2023-03-30T10:54:05.266Z,100558.22
2023-03-30T10:56:53.231Z,100553.63
2023-03-30T10:59:44.546Z,100561.44
2023-03-30T11:02:44.250Z,100557.53
2023-03-30T11:05:22.444Z,100564.59
2023-03-30T11:07:57.021Z,100566.69
2023-03-30T11:10:30.147Z,100541.91
2023-03-30T11:13:02.288Z,100558.47
2023-03-30T11:15:44.069Z,100552.97
2023-03-30T11:18:19.152Z,100563.63
2023-03-30T11:21:02.774Z,100565.91
2023-03-30T11:23:49.359Z,100576.31
2023-03-30T11:26:24.742Z,100571.34
2023-03-30T11:29:00.843Z,100580.72
2023-03-30T11:31:48.339Z,100552.22
2023-03-30T11:34:31.156Z,100578.50
2023-03-30T11:37:08.654Z,100556.50
2023-03-30T11:39:40.396Z,100576.06
2023-03-30T11:42:21.225Z,100569.97
2023-03-30T11:44:47.811Z,100578.94
2023-03-30T11:47:42.401Z,100574.94
2023-03-30T11:50:35.386Z,100564.63
2023-03-30T11:53:21.145Z,100570.59
2023-03-30T11:55:56.481Z,100559.34
2023-03-30T11:58:47.460Z,100563.84
2023-03-30T12:01:35.262Z,100564.06
2023-03-30T12:04:09.395Z,100565.94
2023-03-30T12:06:41.815Z,100556.94
2023-03-30T12:09:22.931Z,100563.34
2023-03-30T12:12:09.772Z,100561.41
2023-03-30T12:14:49.561Z,100566.63
2023-03-30T12:17:37.450Z,100578.69
2023-03-30T12:20:16.266Z,100572.66
2023-03-30T12:23:00.795Z,100571.75
2023-03-30T12:26:05.262Z,100577.50
2023-03-30T12:29:08.316Z,100571.69
2023-03-30T12:31:53.364Z,100583.75
2023-03-30T12:34:20.718Z,100563.84
2023-03-30T12:36:54.518Z,100563.31
2023-03-30T12:39:26.625Z,100560.88
2023-03-30T12:42:04.744Z,100566.66
2023-03-30T12:44:39.946Z,100570.69
2023-03-30T12:47:34.372Z,100570.81
2023-03-30T12:50:22.919Z,100570.63
2023-03-30T12:53:08.169Z,100562.03
2023-03-30T12:55:44.377Z,100564.94
2023-03-30T12:58:17.650Z,100565.31
2023-03-30T13:01:23.776Z,100563.44
2023-03-30T13:03:53.667Z,100563.84
2023-03-30T13:06:30.692Z,100569.47
2023-03-30T13:09:02.835Z,100561.97
2023-03-30T13:11:43.570Z,100551.69
2023-03-30T13:14:34.777Z,100566.13
2023-03-30T13:17:01.125Z,100562.69
2023-03-30T13:19:33.612Z,100574.81
2023-03-30T13:22:12.365Z,100563.94
2023-03-30T13:24:41.687Z,100560.97
2023-03-30T13:27:21.475Z,100580.50
2023-03-30T13:30:06.712Z,100566.41
2023-03-30T13:32:45.233Z,100573.03
2023-03-30T13:35:46.167Z,100572.31
2023-03-30T13:38:34.940Z,100564.44
2023-03-30T13:41:12.895Z,100576.84
2023-03-30T13:43:57.793Z,100573.94
2023-03-30T13:46:31.187Z,100565.91
2023-03-30T13:49:19.065Z,100575.91
2023-03-30T13:51:46.339Z,100563.16
2023-03-30T13:54:29.295Z,100562.69
2023-03-30T13:57:01.261Z,100572.88
2023-03-30T13:59:31.775Z,100568.44
2023-03-30T14:02:00.857Z,100577.28
2023-03-30T14:04:33.054Z,100574.16
2023-03-30T14:07:11.288Z,100556.59
2023-03-30T14:09:37.634Z,100590.03
2023-03-30T14:12:04.891Z,100578.06
2023-03-30T14:14:36.316Z,100579.94
2023-03-30T14:17:13.086Z,100567.56
2023-03-30T14:20:07.877Z,100577.59
2023-03-30T14:22:40.863Z,100574.66
2023-03-30T14:25:36.213Z,100571.84
2023-03-30T14:28:11.932Z,100564.72
2023-03-30T14:30:38.358Z,100562.38
2023-03-30T14:33:13.833Z,100563.41
2023-03-30T14:35:50.077Z,100573.63
2023-03-30T14:38:21.815Z,100562.47
2023-03-30T14:40:49.897Z,100570.00
2023-03-30T14:43:20.937Z,100556.72
2023-03-30T14:45:49.120Z,100562.50
2023-03-30T14:48:23.437Z,100549.66
2023-03-30T14:50:49.840Z,100551.72
2023-03-30T14:53:22.463Z,100535.44
2023-03-30T14:55:49.494Z,100548.34
2023-03-30T14:58:16.145Z,100556.81
2023-03-30T15:00:43.624Z,100546.78
2023-03-30T15:03:22.682Z,100544.22
2023-03-30T15:06:00.234Z,100548.53
2023-03-30T15:08:30.063Z,100556.03
2023-03-30T15:11:00.634Z,100554.53
2023-03-30T15:13:40.171Z,100555.31
2023-03-30T15:16:07.456Z,100557.72
2023-03-30T15:18:36.532Z,100555.03
2023-03-30T15:21:03.276Z,100549.53
2023-03-30T15:23:39.622Z,100550.00
2023-03-30T15:26:06.826Z,100556.38
2023-03-30T15:28:42.306Z,100565.59
2023-03-30T15:31:12.977Z,100544.56
2023-03-30T15:33:45.622Z,100553.75
2023-03-30T15:36:17.351Z,100555.63
2023-03-30T15:38:49.568Z,100554.53
2023-03-30T15:41:17.294Z,100543.00
2023-03-30T15:44:09.854Z,100550.31
2023-03-30T15:46:37.484Z,100546.78
2023-03-30T15:49:05.635Z,100543.94
2023-03-30T15:51:39.264Z,100548.09
2023-03-30T15:54:17.572Z,100557.75
2023-03-30T15:57:04.508Z,100549.38
2023-03-30T15:59:39.983Z,100548.81
2023-03-30T16:02:15.745Z,100554.22
2023-03-30T16:04:42.194Z,100548.03
2023-03-30T16:07:20.170Z,100551.63
2023-03-30T16:09:46.539Z,100562.25
2023-03-30T16:12:16.962Z,100545.78
2023-03-30T16:14:43.607Z,100543.22
2023-03-30T16:17:13.172Z,100545.00
2023-03-30T16:19:40.702Z,100559.53
2023-03-30T16:22:09.099Z,100558.06
2023-03-30T16:24:35.636Z,100556.47
2023-03-30T16:27:02.853Z,100563.81
2023-03-30T16:29:29.272Z,100546.53
2023-03-30T16:31:55.703Z,100539.13
2023-03-30T16:34:22.083Z,100557.59
2023-03-30T16:36:49.665Z,100543.84
2023-03-30T16:39:21.873Z,100536.50
2023-03-30T16:41:48.816Z,100550.88
2023-03-30T16:44:16.491Z,100557.25
2023-03-30T16:46:43.211Z,100551.97
2023-03-30T16:49:18.546Z,100556.66
2023-03-30T16:51:45.202Z,100556.66
2023-03-30T16:54:27.297Z,100556.41
2023-03-30T16:56:56.462Z,100559.84
2023-03-30T16:59:28.214Z,100549.31
2023-03-30T17:01:54.583Z,100561.13
2023-03-30T17:04:20.953Z,100554.50
2023-03-30T17:06:47.667Z,100555.88
2023-03-30T17:09:16.275Z,100555.06
2023-03-30T17:11:49.830Z,100553.41
2023-03-30T17:14:17.057Z,100551.97
2023-03-30T17:16:43.597Z,100570.25
2023-03-30T17:19:12.463Z,100553.75
2023-03-30T17:21:39.059Z,100553.66
2023-03-30T17:24:06.003Z,100558.72
2023-03-30T17:26:32.479Z,100555.63
2023-03-30T17:28:58.923Z,100555.41
2023-03-30T17:31:25.395Z,100566.78
2023-03-30T17:33:51.787Z,100555.94
2023-03-30T17:36:26.481Z,100566.00
2023-03-30T17:38:53.042Z,100563.50
2023-03-30T17:41:20.032Z,100567.41
2023-03-30T17:43:48.036Z,100573.84
2023-03-30T17:46:18.266Z,100563.41
2023-03-30T17:48:44.812Z,100578.63
2023-03-30T17:51:11.196Z,100571.88
2023-03-30T17:53:37.868Z,100566.28
2023-03-30T17:56:04.513Z,100566.28
2023-03-30T17:58:33.878Z,100561.44
2023-03-30T18:01:02.749Z,100586.94
2023-03-30T18:03:29.546Z,100562.94
2023-03-30T18:05:57.640Z,100577.78
2023-03-30T18:08:24.996Z,100563.59
2023-03-30T18:10:53.734Z,100554.19
2023-03-30T18:13:22.029Z,100565.88
2023-03-30T18:15:50.163Z,100569.28
2023-03-30T18:18:19.168Z,100572.94
2023-03-30T18:20:45.517Z,100578.22
2023-03-30T18:23:11.994Z,100570.75
2023-03-30T18:25:38.350Z,100576.22
2023-03-30T18:28:04.784Z,100588.06
2023-03-30T18:30:37.817Z,100598.56
2023-03-30T18:33:05.046Z,100587.00
2023-03-30T18:35:33.158Z,100589.34
2023-03-30T18:38:00.218Z,100590.25
2023-03-30T18:40:38.554Z,100606.44
2023-03-30T18:43:05.755Z,100612.53
2023-03-30T18:45:36.199Z,100589.41
2023-03-30T18:48:02.583Z,100591.66
2023-03-30T18:50:33.909Z,100582.19
2023-03-30T18:53:01.573Z,100600.13
2023-03-30T18:55:29.102Z,100610.28
2023-03-30T18:57:55.420Z,100599.63
2023-03-30T19:00:28.117Z,100596.63
2023-03-30T19:02:55.292Z,100589.19
2023-03-30T19:05:23.320Z,100599.13
2023-03-30T19:07:50.161Z,100579.88
2023-03-30T19:10:19.832Z,100597.94
2023-03-30T19:12:47.092Z,100591.16
2023-03-30T19:15:19.212Z,100609.31
2023-03-30T19:17:45.543Z,100605.72
2023-03-30T19:20:12.479Z,100590.88
2023-03-30T19:22:38.973Z,100585.06
2023-03-30T19:25:05.919Z,100586.09
2023-03-30T19:27:32.527Z,100587.34
2023-03-30T19:29:58.948Z,100588.56
2023-03-30T19:32:25.651Z,100586.97
2023-03-30T19:34:52.263Z,100579.16
2023-03-30T19:37:18.718Z,100590.09
2023-03-30T19:39:45.408Z,100581.63
2023-03-30T19:42:11.956Z,100583.88
2023-03-30T19:44:38.380Z,100578.03
2023-03-30T19:47:05.243Z,100585.50
2023-03-30T19:49:31.655Z,100580.28
2023-03-30T19:51:58.091Z,100574.66
2023-03-30T19:54:25.697Z,100571.44
2023-03-30T19:56:52.375Z,100571.44
2023-03-30T19:59:20.382Z,100583.94
2023-03-30T20:01:47.208Z,100575.47
2023-03-30T20:04:13.735Z,100569.84
2023-03-30T20:06:40.186Z,100576.97
2023-03-30T20:09:06.673Z,100570.28
2023-03-30T20:11:33.625Z,100571.69
2023-03-30T20:14:00.085Z,100563.66
2023-03-30T20:16:26.486Z,100549.94
2023-03-30T20:18:53.611Z,100564.81
2023-03-30T20:21:21.853Z,100559.00
2023-03-30T20:23:48.852Z,100542.16
2023-03-30T20:26:15.204Z,100543.75
2023-03-30T20:28:41.602Z,100551.19
2023-03-30T20:31:08.057Z,100544.97
2023-03-30T20:33:34.533Z,100518.44
2023-03-30T20:36:01.163Z,100540.31
2023-03-30T20:38:27.579Z,100524.88
2023-03-30T20:41:01.916Z,100534.50
2023-03-30T20:43:28.514Z,100524.88
2023-03-30T20:45:55.836Z,100526.69
2023-03-30T20:48:22.325Z,100523.31
2023-03-30T20:50:48.637Z,100531.13
2023-03-30T20:53:14.959Z,100512.03
2023-03-30T20:55:42.616Z,100518.84
2023-03-30T20:58:08.920Z,100519.63
2023-03-30T21:00:35.216Z,100510.81
2023-03-30T21:03:01.664Z,100525.84
2023-03-30T21:05:28.321Z,100519.84
2023-03-30T21:07:54.703Z,100523.00
2023-03-30T21:10:21.559Z,100508.28
2023-03-30T21:12:47.943Z,100490.00
2023-03-30T21:15:14.266Z,100502.88
2023-03-30T21:17:40.718Z,100499.25
2023-03-30T21:20:07.736Z,100502.47
2023-03-30T21:22:34.075Z,100503.91
2023-03-30T21:25:00.374Z,100512.72
2023-03-30T21:27:26.680Z,100522.16
2023-03-30T21:29:53.037Z,100513.41
2023-03-30T21:32:19.462Z,100497.31
2023-03-30T21:34:45.809Z,100504.47
2023-03-30T21:37:12.218Z,100494.84
2023-03-30T21:39:38.559Z,100499.16
2023-03-30T21:42:04.992Z,100499.88
2023-03-30T21:44:35.274Z,100484.97
2023-03-30T21:47:01.819Z,100477.91
2023-03-30T21:49:28.398Z,100484.31
2023-03-30T21:51:54.717Z,100464.19
2023-03-30T21:54:21.047Z,100477.41
2023-03-30T21:56:47.489Z,100466.31
2023-03-30T21:59:13.898Z,100476.50
2023-03-30T22:01:40.279Z,100447.88
2023-03-30T22:04:06.736Z,100458.56
2023-03-30T22:06:33.149Z,100473.22
2023-03-30T22:08:59.670Z,100475.06
2023-03-30T22:11:26.216Z,100471.41
2023-03-30T22:13:53.145Z,100466.72
2023-03-30T22:16:21.948Z,100456.13
2023-03-30T22:18:48.532Z,100457.38
2023-03-30T22:21:18.441Z,100456.53
2023-03-30T22:23:45.441Z,100464.41
2023-03-30T22:26:12.490Z,100458.94
2023-03-30T22:28:38.834Z,100457.56
2023-03-30T22:31:09.975Z,100447.00
2023-03-30T22:33:36.859Z,100441.84
2023-03-30T22:36:03.832Z,100444.59
2023-03-30T22:38:30.947Z,100452.84
2023-03-30T22:41:07.372Z,100451.66
2023-03-30T22:43:35.189Z,100430.47
2023-03-30T22:46:01.748Z,100437.09
2023-03-30T22:48:28.269Z,100442.28
2023-03-30T22:50:54.667Z,100425.66
2023-03-30T22:53:21.019Z,100446.81
2023-03-30T22:55:47.606Z,100444.59
2023-03-30T22:58:14.320Z,100425.38
2023-03-30T23:00:40.687Z,100431.28
2023-03-30T23:03:07.117Z,100419.38
2023-03-30T23:05:33.479Z,100420.84
2023-03-30T23:08:00.377Z,100420.75
2023-03-30T23:10:27.224Z,100412.47
2023-03-30T23:12:54.148Z,100413.25
2023-03-30T23:15:20.472Z,100396.38
2023-03-30T23:17:46.851Z,100398.84
2023-03-30T23:20:13.208Z,100408.88
2023-03-30T23:22:39.533Z,100411.94
2023-03-30T23:25:06.597Z,100393.13
2023-03-30T23:27:34.210Z,100392.84
2023-03-30T23:30:00.748Z,100375.81
2023-03-30T23:32:27.209Z,100379.75
2023-03-30T23:34:53.578Z,100364.91
2023-03-30T23:37:19.961Z,100373.16
2023-03-30T23:39:46.313Z,100346.06
2023-03-30T23:42:12.668Z,100357.13
2023-03-30T23:44:39.071Z,100345.06
2023-03-30T23:47:05.454Z,100345.06
2023-03-30T23:49:31.826Z,100341.28
2023-03-30T23:51:58.259Z,100334.63
2023-03-30T23:54:24.694Z,100332.66
2023-03-30T23:56:51.074Z,100340.09
2023-03-30T23:59:17.469Z,100350.13
